Airfield :
LOGIN :

Register | Disclaimer

   EN    FR    IT 

 










Legend :    VFR   Marginal VFR   IFR   Intensive IFR   Very Intensive IFR
Visi :
Ceiling :
>= 8 km
>= 3000ft
5 to 8 km
1000 to 3000 ft
1500m to 5 km
500 to 1000 ft
800 to 1500m
200 to 500 ft
< 800m
< 200 ft
Symbols :   Thunderstorms  Fog  Heavy snow  Heavy precipitations  Wind > 20 kt
SIGMETs :     Misc.  Thunderstorms  Icing  Turbulence  Mountain Waves  Volcanic Ashes






- Airport Elevation : 2595 ft
- IATA code : SLM


LESA - Salamanca Matacan

CURRENT METAR :
  • 291200Z 28014KT 9000 SCT025 09/04 Q1019

EXPIRED METARs :
  • 291130Z 27013KT 9000 SCT025 09/05 Q1020
  • 291100Z 28012KT 9000 BKN025 08/05 Q1020
  • 291030Z 28011KT 6000 BKN010 07/05 Q1020
  • 291004Z 27010KT 6000 OVC004 06/05 Q1021
  • 290930Z 26011KT 1000 R21/P2000 BR OVC004 05/04 Q1021
  • 290900Z 27007KT 250V320 1000 R21/P2000 BR OVC004 05/04 Q1021
  • 290847Z 26004KT 1000 R21/P2000 BR SCT020 04/04 Q1021
  • 290830Z 23003KT 200V260 3000 BR SCT020 02/01 Q1021
  • 290800Z 00000KT 9999 SCT020 M00/M01 Q1021
  • 290730Z 00000KT 9999 SCT020 M01/M01 Q1020

TAF TAF LESA
Valid from the 29 at 09:00 until the 01 at 09:00 UTC


290800Z 2909/0109 VRB03KT 9999 FEW010 SCT020 TX11/2915Z TNM04/0106Z
PROB40
TEMPO 2909/2915 BKN008
PROB30
TEMPO 2909/2910 0100 FG OVC001
BECMG 2909/2911 26010KT
PROB30
TEMPO 2913/2918 26015G25KT DZ
PROB30
TEMPO 2923/0107 4000 BR BKN006



MET'MAP, your aeronautical weather chart ! - Copyright ORBIFLY December 2007 - Disclaimer

ORBIFLY MET'MAP TEAM :

Programming & Development : Alexandra Zaïnal
Original concept : Baudouin d'Aumeries
Technical & hardware support : Manuel Goepfert
Assistance : Marc-Olivier Méhu




SOURCES & CREDITS :

   NOAA